sensor_id;sensor_type;location;lat;lon;timestamp;pressure;altitude;pressure_sealevel;temperature;humidity
34983;BME280;21187;50.976;13.720;2022-10-15T00:01:51;97655.19;;;17.94;52.65
34983;BME280;21187;50.976;13.720;2022-10-15T00:06:53;97657.53;;;17.92;52.72
34983;BME280;21187;50.976;13.720;2022-10-15T00:11:54;97650.97;;;17.86;52.77
34983;BME280;21187;50.976;13.720;2022-10-15T00:16:56;97650.97;;;17.86;52.77
34983;BME280;21187;50.976;13.720;2022-10-15T00:21:58;97645.94;;;17.80;52.99
34983;BME280;21187;50.976;13.720;2022-10-15T00:27:05;97644.41;;;17.79;52.96
34983;BME280;21187;50.976;13.720;2022-10-15T00:32:07;97650.19;;;17.85;52.90
34983;BME280;21187;50.976;13.720;2022-10-15T00:37:12;97639.63;;;17.84;52.90
34983;BME280;21187;50.976;13.720;2022-10-15T00:42:15;97633.44;;;17.79;53.08
34983;BME280;21187;50.976;13.720;2022-10-15T00:47:19;97636.63;;;17.74;53.26
34983;BME280;21187;50.976;13.720;2022-10-15T00:53:11;97627.59;;;17.77;53.16
34983;BME280;21187;50.976;13.720;2022-10-15T00:57:49;97625.31;;;17.72;53.33
34983;BME280;21187;50.976;13.720;2022-10-15T01:02:51;97623.69;;;17.75;53.09
34983;BME280;21187;50.976;13.720;2022-10-15T01:07:53;97620.56;;;17.76;52.92
34983;BME280;21187;50.976;13.720;2022-10-15T01:13:13;97611.97;;;17.74;52.99
34983;BME280;21187;50.976;13.720;2022-10-15T01:18:48;97591.97;;;17.77;52.99
34983;BME280;21187;50.976;13.720;2022-10-15T01:39:53;97578.53;;;17.59;53.64
34983;BME280;21187;50.976;13.720;2022-10-15T01:45:05;97591.16;;;17.50;53.94
34983;BME280;21187;50.976;13.720;2022-10-15T01:50:27;97579.88;;;17.48;53.93
34983;BME280;21187;50.976;13.720;2022-10-15T01:55:33;97581.81;;;17.47;53.97
34983;BME280;21187;50.976;13.720;2022-10-15T02:00:38;97582.53;;;17.51;53.75
34983;BME280;21187;50.976;13.720;2022-10-15T02:06:00;97580.19;;;17.53;53.72
34983;BME280;21187;50.976;13.720;2022-10-15T02:11:06;97580.91;;;17.57;53.66
34983;BME280;21187;50.976;13.720;2022-10-15T02:21:30;97562.91;;;17.56;53.70
34983;BME280;21187;50.976;13.720;2022-10-15T02:26:35;97564.31;;;17.68;53.39
34983;BME280;21187;50.976;13.720;2022-10-15T02:31:40;97552.59;;;17.68;53.38
34983;BME280;21187;50.976;13.720;2022-10-15T02:36:45;97552.19;;;17.69;53.40
34983;BME280;21187;50.976;13.720;2022-10-15T02:41:47;97543.53;;;17.74;53.10
34983;BME280;21187;50.976;13.720;2022-10-15T02:46:49;97548.56;;;17.76;52.97
34983;BME280;21187;50.976;13.720;2022-10-15T02:51:53;97541.50;;;17.78;52.93
34983;BME280;21187;50.976;13.720;2022-10-15T02:56:55;97535.31;;;17.74;53.05
34983;BME280;21187;50.976;13.720;2022-10-15T03:01:58;97538.81;;;17.75;53.10
34983;BME280;21187;50.976;13.720;2022-10-15T03:07:01;97529.81;;;17.74;53.02
34983;BME280;21187;50.976;13.720;2022-10-15T03:12:04;97529.81;;;17.74;53.09
34983;BME280;21187;50.976;13.720;2022-10-15T03:17:07;97523.63;;;17.70;53.20
34983;BME280;21187;50.976;13.720;2022-10-15T03:22:09;97523.25;;;17.68;53.40
34983;BME280;21187;50.976;13.720;2022-10-15T03:27:22;97508.03;;;17.67;53.47
34983;BME280;21187;50.976;13.720;2022-10-15T03:32:25;97512.75;;;17.63;53.60
34983;BME280;21187;50.976;13.720;2022-10-15T03:37:27;97512.88;;;17.56;53.92
34983;BME280;21187;50.976;13.720;2022-10-15T03:42:30;97505.38;;;17.60;53.98
34983;BME280;21187;50.976;13.720;2022-10-15T03:47:33;97511.94;;;17.66;53.64
34983;BME280;21187;50.976;13.720;2022-10-15T03:52:35;97506.34;;;17.73;53.58
34983;BME280;21187;50.976;13.720;2022-10-15T03:57:38;97517.22;;;17.80;53.34
34983;BME280;21187;50.976;13.720;2022-10-15T04:02:40;97501.97;;;17.79;53.40
34983;BME280;21187;50.976;13.720;2022-10-15T04:07:53;97515.97;;;17.85;53.15
34983;BME280;21187;50.976;13.720;2022-10-15T04:12:56;97519.84;;;17.88;53.23
34983;BME280;21187;50.976;13.720;2022-10-15T04:18:00;97519.84;;;17.88;53.13
34983;BME280;21187;50.976;13.720;2022-10-15T04:23:03;97520.69;;;17.85;53.23
34983;BME280;21187;50.976;13.720;2022-10-15T04:28:05;97516.38;;;17.84;53.37
34983;BME280;21187;50.976;13.720;2022-10-15T04:33:10;97517.94;;;17.85;53.26
34983;BME280;21187;50.976;13.720;2022-10-15T04:38:13;97521.88;;;17.84;53.48
34983;BME280;21187;50.976;13.720;2022-10-15T04:43:32;97512.56;;;17.77;53.57
34983;BME280;21187;50.976;13.720;2022-10-15T04:48:39;97518.88;;;17.74;53.54
34983;BME280;21187;50.976;13.720;2022-10-15T04:53:46;97500.16;;;17.69;53.67
34983;BME280;21187;50.976;13.720;2022-10-15T04:58:49;97498.31;;;17.62;53.94
34983;BME280;21187;50.976;13.720;2022-10-15T05:03:51;97506.75;;;17.44;54.19
34983;BME280;21187;50.976;13.720;2022-10-15T05:08:53;97501.44;;;17.34;54.33
34983;BME280;21187;50.976;13.720;2022-10-15T05:14:02;97509.28;;;17.32;54.39
34983;BME280;21187;50.976;13.720;2022-10-15T05:19:07;97498.38;;;17.28;54.50
34983;BME280;21187;50.976;13.720;2022-10-15T05:24:11;97518.38;;;17.25;54.43
34983;BME280;21187;50.976;13.720;2022-10-15T05:29:48;97510.91;;;17.29;54.31
34983;BME280;21187;50.976;13.720;2022-10-15T05:34:50;97506.94;;;17.30;54.71
34983;BME280;21187;50.976;13.720;2022-10-15T05:39:52;97513.22;;;17.30;54.50
34983;BME280;21187;50.976;13.720;2022-10-15T05:44:54;97517.09;;;17.33;54.53
34983;BME280;21187;50.976;13.720;2022-10-15T05:49:56;97513.94;;;17.35;54.61
34983;BME280;21187;50.976;13.720;2022-10-15T05:55:03;97502.56;;;17.36;54.60
34983;BME280;21187;50.976;13.720;2022-10-15T06:00:06;97502.94;;;17.38;54.58
34983;BME280;21187;50.976;13.720;2022-10-15T06:05:14;97510.75;;;17.40;54.65
34983;BME280;21187;50.976;13.720;2022-10-15T06:10:17;97506.50;;;17.35;54.67
34983;BME280;21187;50.976;13.720;2022-10-15T06:15:18;97511.97;;;17.35;54.69
34983;BME280;21187;50.976;13.720;2022-10-15T06:20:20;97510.81;;;17.33;54.80
34983;BME280;21187;50.976;13.720;2022-10-15T06:25:22;97508.88;;;17.33;54.84
34983;BME280;21187;50.976;13.720;2022-10-15T06:30:24;97527.22;;;17.36;54.97
34983;BME280;21187;50.976;13.720;2022-10-15T06:35:26;97536.56;;;17.39;54.98
34983;BME280;21187;50.976;13.720;2022-10-15T06:40:31;97534.25;;;17.37;55.01
34983;BME280;21187;50.976;13.720;2022-10-15T06:45:35;97537.31;;;17.39;55.15
34983;BME280;21187;50.976;13.720;2022-10-15T06:50:41;97555.25;;;17.44;55.04
34983;BME280;21187;50.976;13.720;2022-10-15T06:55:42;97552.84;;;17.50;55.24
34983;BME280;21187;50.976;13.720;2022-10-15T07:00:44;97543.41;;;17.54;55.61
34983;BME280;21187;50.976;13.720;2022-10-15T07:05:46;97555.50;;;17.57;55.30
34983;BME280;21187;50.976;13.720;2022-10-15T07:10:48;97546.41;;;17.63;55.31
34983;BME280;21187;50.976;13.720;2022-10-15T07:15:50;97547.50;;;17.70;55.43
34983;BME280;21187;50.976;13.720;2022-10-15T07:20:55;97547.78;;;17.79;55.22
34983;BME280;21187;50.976;13.720;2022-10-15T07:25:59;97550.81;;;17.85;55.27
34983;BME280;21187;50.976;13.720;2022-10-15T07:31:03;97556.16;;;17.92;55.24
34983;BME280;21187;50.976;13.720;2022-10-15T07:36:07;97552.22;;;17.96;55.23
34983;BME280;21187;50.976;13.720;2022-10-15T07:41:09;97553.66;;;18.05;55.25
34983;BME280;21187;50.976;13.720;2022-10-15T07:46:15;97553.97;;;18.10;55.38
34983;BME280;21187;50.976;13.720;2022-10-15T07:51:17;97557.38;;;18.18;55.24
34983;BME280;21187;50.976;13.720;2022-10-15T07:56:19;97548.22;;;18.28;55.26
34983;BME280;21187;50.976;13.720;2022-10-15T08:01:21;97559.47;;;18.34;55.21
34983;BME280;21187;50.976;13.720;2022-10-15T08:06:23;97568.41;;;18.38;55.07
34983;BME280;21187;50.976;13.720;2022-10-15T08:11:25;97571.03;;;18.45;55.07
34983;BME280;21187;50.976;13.720;2022-10-15T08:16:27;97576.38;;;18.53;55.07
34983;BME280;21187;50.976;13.720;2022-10-15T08:21:32;97585.69;;;18.59;54.81
34983;BME280;21187;50.976;13.720;2022-10-15T08:26:35;97585.59;;;18.66;54.97
34983;BME280;21187;50.976;13.720;2022-10-15T08:31:38;97582.34;;;18.71;55.07
34983;BME280;21187;50.976;13.720;2022-10-15T08:36:40;97572.81;;;18.79;55.04
34983;BME280;21187;50.976;13.720;2022-10-15T08:41:45;97576.97;;;18.88;55.17
34983;BME280;21187;50.976;13.720;2022-10-15T08:46:52;97584.25;;;18.98;55.14
34983;BME280;21187;50.976;13.720;2022-10-15T08:52:04;97601.28;;;19.09;54.98
34983;BME280;21187;50.976;13.720;2022-10-15T08:57:16;97598.06;;;19.15;54.94
34983;BME280;21187;50.976;13.720;2022-10-15T09:02:29;97589.34;;;19.20;55.08
34983;BME280;21187;50.976;13.720;2022-10-15T09:07:42;97594.63;;;19.31;55.02
34983;BME280;21187;50.976;13.720;2022-10-15T09:12:59;97598.34;;;19.40;55.09
34983;BME280;21187;50.976;13.720;2022-10-15T09:18:02;97603.84;;;19.40;55.10
34983;BME280;21187;50.976;13.720;2022-10-15T09:23:20;97597.16;;;19.41;55.22
34983;BME280;21187;50.976;13.720;2022-10-15T09:28:27;97607.03;;;19.39;55.29
34983;BME280;21187;50.976;13.720;2022-10-15T09:43:51;97621.59;;;19.56;55.43
34983;BME280;21187;50.976;13.720;2022-10-15T09:49:07;97630.03;;;19.65;55.38
34983;BME280;21187;50.976;13.720;2022-10-15T09:54:31;97637.69;;;19.74;55.22
34983;BME280;21187;50.976;13.720;2022-10-15T09:59:36;97644.75;;;19.75;55.12
34983;BME280;21187;50.976;13.720;2022-10-15T10:04:39;97643.97;;;19.74;54.64
34983;BME280;21187;50.976;13.720;2022-10-15T10:09:53;97633.47;;;19.89;54.49
34983;BME280;21187;50.976;13.720;2022-10-15T10:20:12;97652.34;;;20.24;54.09
34983;BME280;21187;50.976;13.720;2022-10-15T10:25:27;97658.53;;;20.28;54.25
34983;BME280;21187;50.976;13.720;2022-10-15T10:30:35;97650.31;;;20.44;54.02
34983;BME280;21187;50.976;13.720;2022-10-15T10:35:47;97648.69;;;20.47;53.71
34983;BME280;21187;50.976;13.720;2022-10-15T10:40:56;97652.91;;;20.35;53.75
34983;BME280;21187;50.976;13.720;2022-10-15T10:46:20;97656.31;;;20.23;53.92
34983;BME280;21187;50.976;13.720;2022-10-15T10:51:26;97645.63;;;20.08;54.40
34983;BME280;21187;50.976;13.720;2022-10-15T10:56:33;97645.66;;;20.25;54.22
34983;BME280;21187;50.976;13.720;2022-10-15T11:01:36;97654.41;;;20.20;54.36
34983;BME280;21187;50.976;13.720;2022-10-15T11:23:16;97660.38;;;20.51;54.05
34983;BME280;21187;50.976;13.720;2022-10-15T12:00:55;97665.44;;;21.02;54.13
34983;BME280;21187;50.976;13.720;2022-10-15T12:06:08;97660.94;;;21.25;53.68
34983;BME280;21187;50.976;13.720;2022-10-15T12:11:38;97667.28;;;21.09;53.48
34983;BME280;21187;50.976;13.720;2022-10-15T12:22:37;97665.44;;;21.90;53.29
34983;BME280;21187;50.976;13.720;2022-10-15T12:27:40;97665.59;;;22.13;52.04
34983;BME280;21187;50.976;13.720;2022-10-15T12:32:45;97675.38;;;21.88;51.65
34983;BME280;21187;50.976;13.720;2022-10-15T12:37:49;97668.22;;;21.77;52.04
34983;BME280;21187;50.976;13.720;2022-10-15T12:42:59;97670.03;;;21.38;52.83
34983;BME280;21187;50.976;13.720;2022-10-15T12:58:33;97670.25;;;21.60;53.13
34983;BME280;21187;50.976;13.720;2022-10-15T13:03:58;97663.66;;;21.41;53.40
34983;BME280;21187;50.976;13.720;2022-10-15T13:14:26;97658.50;;;21.86;52.03
34983;BME280;21187;50.976;13.720;2022-10-15T13:19:39;97640.91;;;22.22;51.50
34983;BME280;21187;50.976;13.720;2022-10-15T13:24:43;97639.94;;;22.41;50.41
34983;BME280;21187;50.976;13.720;2022-10-15T13:29:57;97645.97;;;22.62;49.94
34983;BME280;21187;50.976;13.720;2022-10-15T13:35:03;97647.44;;;23.37;48.76
34983;BME280;21187;50.976;13.720;2022-10-15T13:40:22;97639.94;;;26.69;45.09
34983;BME280;21187;50.976;13.720;2022-10-15T13:45:26;97647.84;;;26.95;42.20
34983;BME280;21187;50.976;13.720;2022-10-15T13:50:30;97651.13;;;25.47;43.18
34983;BME280;21187;50.976;13.720;2022-10-15T13:55:36;97647.41;;;24.94;43.68
34983;BME280;21187;50.976;13.720;2022-10-15T14:00:39;97654.81;;;24.97;44.53
34983;BME280;21187;50.976;13.720;2022-10-15T14:05:43;97646.47;;;24.79;43.86
34983;BME280;21187;50.976;13.720;2022-10-15T14:10:47;97651.41;;;24.84;43.79
34983;BME280;21187;50.976;13.720;2022-10-15T14:20:55;97671.44;;;25.71;41.47
34983;BME280;21187;50.976;13.720;2022-10-15T14:26:00;97666.44;;;24.64;43.00
34983;BME280;21187;50.976;13.720;2022-10-15T14:31:03;97679.94;;;23.99;44.45
34983;BME280;21187;50.976;13.720;2022-10-15T14:36:39;97677.16;;;23.68;45.32
34983;BME280;21187;50.976;13.720;2022-10-15T14:42:03;97676.09;;;23.30;45.95
34983;BME280;21187;50.976;13.720;2022-10-15T14:47:05;97687.19;;;23.04;46.53
34983;BME280;21187;50.976;13.720;2022-10-15T14:52:11;97679.50;;;22.73;46.80
34983;BME280;21187;50.976;13.720;2022-10-15T14:57:24;97682.41;;;22.57;47.41
34983;BME280;21187;50.976;13.720;2022-10-15T15:02:28;97675.44;;;22.39;47.83
34983;BME280;21187;50.976;13.720;2022-10-15T15:07:30;97679.50;;;22.35;48.10
34983;BME280;21187;50.976;13.720;2022-10-15T15:12:33;97679.84;;;22.24;48.34
34983;BME280;21187;50.976;13.720;2022-10-15T15:17:36;97685.03;;;22.22;48.36
34983;BME280;21187;50.976;13.720;2022-10-15T15:22:39;97681.38;;;22.12;48.47
34983;BME280;21187;50.976;13.720;2022-10-15T15:27:42;97687.97;;;22.02;48.55
34983;BME280;21187;50.976;13.720;2022-10-15T15:32:45;97689.94;;;21.88;48.84
34983;BME280;21187;50.976;13.720;2022-10-15T15:37:47;97694.88;;;21.81;48.64
34983;BME280;21187;50.976;13.720;2022-10-15T15:42:49;97701.47;;;21.70;48.74
34983;BME280;21187;50.976;13.720;2022-10-15T15:47:51;97718.06;;;21.54;48.73
34983;BME280;21187;50.976;13.720;2022-10-15T15:52:54;97727.72;;;21.29;48.89
34983;BME280;21187;50.976;13.720;2022-10-15T15:57:56;97726.69;;;21.23;48.95
34983;BME280;21187;50.976;13.720;2022-10-15T16:02:58;97732.22;;;21.06;49.01
34983;BME280;21187;50.976;13.720;2022-10-15T16:07:59;97730.84;;;20.98;49.24
34983;BME280;21187;50.976;13.720;2022-10-15T16:13:02;97735.22;;;20.95;49.23
34983;BME280;21187;50.976;13.720;2022-10-15T16:18:03;97730.34;;;20.87;49.14
34983;BME280;21187;50.976;13.720;2022-10-15T16:23:05;97739.97;;;20.78;49.56
34983;BME280;21187;50.976;13.720;2022-10-15T16:28:07;97736.78;;;20.80;49.30
34983;BME280;21187;50.976;13.720;2022-10-15T16:33:09;97743.91;;;20.77;49.27
34983;BME280;21187;50.976;13.720;2022-10-15T16:38:11;97756.38;;;20.82;49.10
34983;BME280;21187;50.976;13.720;2022-10-15T16:43:13;97760.06;;;20.75;49.24
34983;BME280;21187;50.976;13.720;2022-10-15T16:48:15;97767.06;;;20.60;49.37
34983;BME280;21187;50.976;13.720;2022-10-15T16:53:17;97769.97;;;20.53;49.66
34983;BME280;21187;50.976;13.720;2022-10-15T16:58:20;97772.19;;;20.41;49.71
34983;BME280;21187;50.976;13.720;2022-10-15T17:03:22;97779.53;;;20.28;50.19
34983;BME280;21187;50.976;13.720;2022-10-15T17:13:48;97781.03;;;20.13;50.33
34983;BME280;21187;50.976;13.720;2022-10-15T17:18:52;97786.19;;;20.10;50.46
34983;BME280;21187;50.976;13.720;2022-10-15T17:23:57;97799.72;;;20.01;50.83
34983;BME280;21187;50.976;13.720;2022-10-15T17:28:59;97813.94;;;19.96;51.11
34983;BME280;21187;50.976;13.720;2022-10-15T17:34:04;97812.38;;;19.95;51.22
34983;BME280;21187;50.976;13.720;2022-10-15T17:39:06;97824.72;;;19.87;51.12
34983;BME280;21187;50.976;13.720;2022-10-15T17:44:10;97821.25;;;19.83;51.21
34983;BME280;21187;50.976;13.720;2022-10-15T17:49:12;97821.34;;;19.75;51.44
34983;BME280;21187;50.976;13.720;2022-10-15T17:54:18;97823.03;;;19.69;51.60
34983;BME280;21187;50.976;13.720;2022-10-15T17:59:20;97819.06;;;19.70;51.43
34983;BME280;21187;50.976;13.720;2022-10-15T18:04:22;97825.22;;;19.78;50.94
34983;BME280;21187;50.976;13.720;2022-10-15T18:09:25;97843.25;;;19.79;50.98
34983;BME280;21187;50.976;13.720;2022-10-15T18:14:30;97848.47;;;19.73;51.01
34983;BME280;21187;50.976;13.720;2022-10-15T18:19:32;97849.66;;;19.72;50.98
34983;BME280;21187;50.976;13.720;2022-10-15T18:24:34;97847.94;;;19.82;50.43
34983;BME280;21187;50.976;13.720;2022-10-15T18:29:38;97855.69;;;19.87;50.32
34983;BME280;21187;50.976;13.720;2022-10-15T18:34:40;97850.69;;;19.82;50.41
34983;BME280;21187;50.976;13.720;2022-10-15T18:39:43;97852.66;;;19.82;50.23
34983;BME280;21187;50.976;13.720;2022-10-15T18:44:45;97858.28;;;19.74;50.32
34983;BME280;21187;50.976;13.720;2022-10-15T18:49:47;97857.72;;;19.59;50.88
34983;BME280;21187;50.976;13.720;2022-10-15T18:54:49;97856.25;;;19.55;51.13
34983;BME280;21187;50.976;13.720;2022-10-15T18:59:51;97868.03;;;19.52;51.01
34983;BME280;21187;50.976;13.720;2022-10-15T19:04:58;97870.78;;;19.52;51.04
34983;BME280;21187;50.976;13.720;2022-10-15T19:10:00;97878.69;;;19.50;51.25
34983;BME280;21187;50.976;13.720;2022-10-15T19:15:03;97869.81;;;19.38;51.49
34983;BME280;21187;50.976;13.720;2022-10-15T19:20:06;97858.59;;;19.29;51.88
34983;BME280;21187;50.976;13.720;2022-10-15T19:25:08;97862.91;;;19.30;51.85
34983;BME280;21187;50.976;13.720;2022-10-15T19:30:10;97867.97;;;19.32;52.00
34983;BME280;21187;50.976;13.720;2022-10-15T19:35:12;97870.31;;;19.33;51.95
34983;BME280;21187;50.976;13.720;2022-10-15T19:40:15;97864.75;;;19.37;51.71
34983;BME280;21187;50.976;13.720;2022-10-15T19:45:17;97869.03;;;19.41;51.74
34983;BME280;21187;50.976;13.720;2022-10-15T19:50:19;97878.44;;;19.40;51.82
34983;BME280;21187;50.976;13.720;2022-10-15T19:55:24;97868.28;;;19.37;52.27
34983;BME280;21187;50.976;13.720;2022-10-15T20:00:28;97885.50;;;19.41;52.31
34983;BME280;21187;50.976;13.720;2022-10-15T20:05:30;97891.78;;;19.38;52.51
34983;BME280;21187;50.976;13.720;2022-10-15T20:10:32;97897.66;;;19.40;52.38
34983;BME280;21187;50.976;13.720;2022-10-15T20:15:34;97894.06;;;19.43;52.45
34983;BME280;21187;50.976;13.720;2022-10-15T20:20:41;97891.22;;;19.51;52.23
34983;BME280;21187;50.976;13.720;2022-10-15T20:25:44;97910.34;;;19.58;51.98
34983;BME280;21187;50.976;13.720;2022-10-15T20:30:46;97911.91;;;19.59;52.04
34983;BME280;21187;50.976;13.720;2022-10-15T20:35:50;97922.03;;;19.62;51.93
34983;BME280;21187;50.976;13.720;2022-10-15T20:40:55;97927.00;;;19.71;51.72
34983;BME280;21187;50.976;13.720;2022-10-15T20:45:57;97939.97;;;19.70;51.54
34983;BME280;21187;50.976;13.720;2022-10-15T20:50:59;97944.63;;;19.73;51.42
34983;BME280;21187;50.976;13.720;2022-10-15T20:56:02;97955.69;;;19.70;51.45
34983;BME280;21187;50.976;13.720;2022-10-15T21:01:06;97961.16;;;19.70;51.37
34983;BME280;21187;50.976;13.720;2022-10-15T21:06:08;97968.28;;;19.67;51.47
34983;BME280;21187;50.976;13.720;2022-10-15T21:11:10;97959.69;;;19.65;51.32
34983;BME280;21187;50.976;13.720;2022-10-15T21:16:12;97969.91;;;19.61;51.44
34983;BME280;21187;50.976;13.720;2022-10-15T21:21:14;97970.75;;;19.58;51.47
34983;BME280;21187;50.976;13.720;2022-10-15T21:26:17;97970.00;;;19.57;51.48
34983;BME280;21187;50.976;13.720;2022-10-15T21:31:19;97970.75;;;19.58;51.77
34983;BME280;21187;50.976;13.720;2022-10-15T21:36:22;97981.34;;;19.59;51.61
34983;BME280;21187;50.976;13.720;2022-10-15T21:41:28;97963.72;;;19.57;51.67
34983;BME280;21187;50.976;13.720;2022-10-15T21:46:31;97977.81;;;19.59;51.74
34983;BME280;21187;50.976;13.720;2022-10-15T21:51:34;97963.72;;;19.57;51.96
34983;BME280;21187;50.976;13.720;2022-10-15T21:56:36;97960.16;;;19.60;51.98
34983;BME280;21187;50.976;13.720;2022-10-15T22:01:40;97979.38;;;19.60;52.20
34983;BME280;21187;50.976;13.720;2022-10-15T22:06:42;97991.91;;;19.61;52.03
34983;BME280;21187;50.976;13.720;2022-10-15T22:11:45;97995.03;;;19.63;52.21
34983;BME280;21187;50.976;13.720;2022-10-15T22:16:46;97996.59;;;19.64;52.47
34983;BME280;21187;50.976;13.720;2022-10-15T22:21:48;97985.56;;;19.68;52.35
34983;BME280;21187;50.976;13.720;2022-10-15T22:26:51;97991.84;;;19.65;52.99
34983;BME280;21187;50.976;13.720;2022-10-15T22:31:53;97995.41;;;19.65;53.14
34983;BME280;21187;50.976;13.720;2022-10-15T22:36:55;98000.06;;;19.68;53.16
34983;BME280;21187;50.976;13.720;2022-10-15T22:41:57;97998.50;;;19.67;53.35
34983;BME280;21187;50.976;13.720;2022-10-15T22:46:59;98003.16;;;19.70;53.20
34983;BME280;21187;50.976;13.720;2022-10-15T22:52:01;98019.25;;;19.72;53.07
34983;BME280;21187;50.976;13.720;2022-10-15T22:57:03;98025.50;;;19.72;52.92
34983;BME280;21187;50.976;13.720;2022-10-15T23:02:05;98016.97;;;19.67;52.70
34983;BME280;21187;50.976;13.720;2022-10-15T23:07:07;98027.25;;;19.59;52.71
34983;BME280;21187;50.976;13.720;2022-10-15T23:12:08;98027.75;;;19.50;52.94
34983;BME280;21187;50.976;13.720;2022-10-15T23:17:10;98027.53;;;19.37;52.86
34983;BME280;21187;50.976;13.720;2022-10-15T23:22:12;98027.00;;;19.19;53.26
34983;BME280;21187;50.976;13.720;2022-10-15T23:27:14;98006.69;;;19.12;53.45
34983;BME280;21187;50.976;13.720;2022-10-15T23:32:16;98016.59;;;19.03;53.60
34983;BME280;21187;50.976;13.720;2022-10-15T23:37:18;98028.59;;;19.16;53.18
34983;BME280;21187;50.976;13.720;2022-10-15T23:42:20;98024.66;;;19.17;53.20
34983;BME280;21187;50.976;13.720;2022-10-15T23:47:22;98029.00;;;19.15;53.11
34983;BME280;21187;50.976;13.720;2022-10-15T23:52:24;98029.09;;;19.07;53.16
34983;BME280;21187;50.976;13.720;2022-10-15T23:57:26;98027.22;;;19.01;53.10
